Time;durP1;ratioP1;P1;durP2;ratioP2;P2;SDS_P1;SDS_P2;PMS_P1;PMS_P2;Temp;Humidity;BMP_temperature;BMP_pressure;BME280_temperature;BME280_humidity;BME280_pressure;Samples;Min_cycle;Max_cycle;Signal;HPM_P1;HPM_P2
2022/06/01 00:00:01;;;;;;;0.90;0.30;;;11.50;99.90;;;;;;5012609;28;20038;-82
2022/06/01 00:02:37;;;;;;;0.75;0.30;;;11.50;99.90;;;;;;5004983;28;20033;-81
2022/06/01 00:05:21;;;;;;;0.63;0.30;;;11.50;99.90;;;;;;5013593;28;20033;-80
2022/06/01 00:07:51;;;;;;;0.45;0.28;;;11.40;99.90;;;;;;5013359;28;20034;-81
2022/06/01 00:10:19;;;;;;;0.30;0.20;;;11.40;99.90;;;;;;4995879;28;20041;-81
2022/06/01 00:12:54;;;;;;;0.47;0.30;;;11.40;99.90;;;;;;5013263;28;20026;-81
2022/06/01 00:15:22;;;;;;;0.32;0.20;;;11.30;99.90;;;;;;5013256;28;20068;-81
2022/06/01 00:18:08;;;;;;;0.52;0.30;;;11.30;99.90;;;;;;4980478;28;20040;-80
2022/06/01 00:21:10;;;;;;;0.50;0.30;;;11.30;99.90;;;;;;5013439;28;20065;-81
2022/06/01 00:23:44;;;;;;;1.08;0.30;;;11.30;99.90;;;;;;5012616;28;20037;-81
2022/06/01 00:26:18;;;;;;;0.20;0.20;;;11.20;99.90;;;;;;4995644;28;20052;-81
2022/06/01 00:31:38;;;;;;;0.20;0.20;;;11.20;99.90;;;;;;5014459;28;20041;-79
2022/06/01 00:34:14;;;;;;;0.30;0.20;;;11.10;99.90;;;;;;5011949;28;20042;-79
2022/06/01 00:36:57;;;;;;;0.52;0.30;;;11.10;99.90;;;;;;5013084;28;20026;-78
2022/06/01 00:39:27;;;;;;;0.52;0.30;;;11.00;99.90;;;;;;5012295;28;20054;-81
2022/06/01 00:42:17;;;;;;;0.60;0.30;;;11.00;99.90;;;;;;5014351;28;20045;-79
2022/06/01 00:44:47;;;;;;;0.55;0.30;;;11.00;99.90;;;;;;5013645;28;20463;-79
2022/06/01 00:47:35;;;;;;;0.40;0.30;;;10.90;99.90;;;;;;5013459;28;20064;-79
2022/06/01 00:50:25;;;;;;;0.68;0.30;;;10.90;99.90;;;;;;5012051;28;20532;-79
2022/06/01 00:53:25;;;;;;;0.28;0.20;;;10.90;99.90;;;;;;5014329;28;20022;-79
2022/06/01 00:56:05;;;;;;;0.65;0.28;;;10.80;99.90;;;;;;5013414;28;20050;-79
2022/06/01 00:58:37;;;;;;;;;;;10.70;99.90;;;;;;5013785;28;20053;-79
2022/06/01 01:01:08;;;;;;;0.77;0.30;;;10.70;99.90;;;;;;5013532;28;19905;-79
2022/06/01 01:03:45;;;;;;;0.45;0.25;;;10.70;99.90;;;;;;5012889;28;20038;-79
2022/06/01 01:06:36;;;;;;;0.35;0.25;;;10.60;99.90;;;;;;5011614;28;20104;-79
2022/06/01 01:09:03;;;;;;;0.50;0.25;;;10.50;99.90;;;;;;5013355;28;20018;-79
2022/06/01 01:12:05;;;;;;;0.50;0.30;;;10.50;99.90;;;;;;5011788;28;20148;-81
2022/06/01 01:14:35;;;;;;;1.25;0.52;;;10.40;99.90;;;;;;5012741;28;20033;-79
2022/06/01 01:17:09;;;;;;;0.80;0.30;;;10.30;99.90;;;;;;5012329;28;20371;-81
2022/06/01 01:19:49;;;;;;;0.88;0.30;;;10.30;99.90;;;;;;5012826;28;20129;-81
2022/06/01 01:22:43;;;;;;;0.68;0.30;;;10.20;99.90;;;;;;5011735;28;20144;-80
2022/06/01 01:25:45;;;;;;;1.98;0.73;;;10.20;99.90;;;;;;5012634;28;20100;-80
2022/06/01 01:28:11;;;;;;;1.35;0.85;;;10.20;99.90;;;;;;5016381;28;20057;-80
2022/06/01 01:31:02;;;;;;;0.52;0.28;;;10.20;99.90;;;;;;4999010;28;20058;-81
2022/06/01 01:33:36;;;;;;;0.85;0.30;;;10.20;99.90;;;;;;5016271;28;20351;-81
2022/06/01 01:36:24;;;;;;;0.77;0.30;;;10.20;99.90;;;;;;5015198;28;20540;-81
2022/06/01 01:39:22;;;;;;;0.90;0.40;;;10.20;99.90;;;;;;5017005;28;20061;-81
2022/06/01 01:41:59;;;;;;;1.05;0.40;;;10.30;99.90;;;;;;5015671;28;20042;-79
2022/06/01 01:44:56;;;;;;;0.32;0.20;;;10.30;99.90;;;;;;5015438;28;20360;-79
2022/06/01 01:47:22;;;;;;;0.25;0.22;;;10.40;99.90;;;;;;5015787;28;20060;-79
2022/06/01 01:49:48;;;;;;;0.40;0.25;;;10.40;99.90;;;;;;5016078;28;20427;-79
2022/06/01 01:52:24;;;;;;;0.30;0.20;;;10.40;99.90;;;;;;5014445;28;20124;-79
2022/06/01 01:55:09;;;;;;;1.10;0.32;;;10.40;99.90;;;;;;5015271;28;20422;-79
2022/06/01 01:58:12;;;;;;;3.50;0.77;;;10.50;99.90;;;;;;5016471;28;20113;-79
2022/06/01 02:00:48;;;;;;;0.50;0.25;;;10.50;99.90;;;;;;5016511;28;20046;-79
2022/06/01 02:03:39;;;;;;;0.60;0.30;;;10.50;99.90;;;;;;4998733;28;20133;-79
2022/06/01 02:06:23;;;;;;;0.33;0.27;;;10.50;99.90;;;;;;5015898;28;20069;-79
2022/06/01 02:09:11;;;;;;;1.95;0.95;;;10.50;99.90;;;;;;5016741;28;20339;-79
2022/06/01 02:14:54;;;;;;;0.57;0.30;;;10.50;99.90;;;;;;5015553;28;20048;-80
2022/06/01 02:17:37;;;;;;;4.30;0.40;;;10.50;99.90;;;;;;5014298;28;20053;-80
2022/06/01 02:20:35;;;;;;;0.98;0.32;;;10.50;99.90;;;;;;5014823;28;20473;-80
2022/06/01 02:23:02;;;;;;;0.47;0.30;;;10.50;99.90;;;;;;5014639;28;20048;-79
2022/06/01 02:25:29;;;;;;;0.52;0.25;;;10.50;99.90;;;;;;5013600;28;20034;-80
2022/06/01 02:27:58;;;;;;;1.02;0.38;;;10.60;99.90;;;;;;5015726;28;20042;-80
2022/06/01 02:30:47;;;;;;;0.75;0.30;;;10.60;99.90;;;;;;5014251;28;20137;-79
2022/06/01 02:33:35;;;;;;;1.05;0.80;;;10.60;99.90;;;;;;4996442;28;20034;-80
2022/06/01 02:36:05;;;;;;;0.70;0.40;;;10.60;99.90;;;;;;5015743;28;20018;-79
2022/06/01 02:38:48;;;;;;;0.67;0.30;;;10.60;99.90;;;;;;4997871;28;20049;-79
2022/06/01 02:44:10;;;;;;;0.52;0.22;;;10.60;99.90;;;;;;5016036;28;20446;-79
2022/06/01 02:46:37;;;;;;;0.75;0.30;;;10.60;99.90;;;;;;5014889;28;20025;-80
2022/06/01 02:49:08;;;;;;;1.02;0.57;;;10.60;99.90;;;;;;5013771;28;20149;-80
2022/06/01 02:51:40;;;;;;;0.30;0.20;;;10.60;99.90;;;;;;5014718;28;20026;-80
2022/06/01 02:54:06;;;;;;;1.52;0.60;;;10.60;99.90;;;;;;5013999;28;20053;-80
2022/06/01 02:57:05;;;;;;;0.40;0.30;;;10.60;99.90;;;;;;4998013;28;20060;-80
2022/06/01 02:59:52;;;;;;;0.75;0.30;;;10.60;99.90;;;;;;5015006;28;20060;-80
2022/06/01 03:02:18;;;;;;;0.95;0.30;;;10.50;99.90;;;;;;5013910;28;20402;-80
2022/06/01 03:04:48;;;;;;;0.45;0.25;;;10.50;99.90;;;;;;5013661;28;20040;-80
2022/06/01 03:07:26;;;;;;;0.75;0.30;;;10.50;99.90;;;;;;5011110;28;20041;-81
2022/06/01 03:10:07;;;;;;;0.90;0.30;;;10.40;99.90;;;;;;5014483;28;20061;-80
2022/06/01 03:12:43;;;;;;;0.68;0.30;;;10.40;99.90;;;;;;5014144;28;20045;-80
2022/06/01 03:15:14;;;;;;;1.50;0.65;;;10.40;99.90;;;;;;4998177;28;20050;-80
2022/06/01 03:17:42;;;;;;;5.07;0.50;;;10.40;99.90;;;;;;5013653;28;20030;-80
2022/06/01 03:20:11;;;;;;;1.42;0.65;;;10.40;99.90;;;;;;4981843;28;20030;-80
2022/06/01 03:22:39;;;;;;;0.52;0.30;;;10.40;99.90;;;;;;5013052;28;20460;-80
2022/06/01 03:25:09;;;;;;;0.90;0.30;;;10.40;99.90;;;;;;5012681;28;20406;-80
2022/06/01 03:27:38;;;;;;;0.55;0.25;;;10.50;99.90;;;;;;5013620;28;20470;-80
2022/06/01 03:30:16;;;;;;;1.27;0.65;;;10.50;99.90;;;;;;5014410;28;20045;-80
2022/06/01 03:32:53;;;;;;;0.93;0.30;;;10.50;99.90;;;;;;5015133;28;20029;-79
2022/06/01 03:35:38;;;;;;;1.30;0.50;;;10.50;99.90;;;;;;5013660;28;20074;-80
2022/06/01 03:38:09;;;;;;;0.70;0.65;;;10.50;99.90;;;;;;5013490;28;20046;-80
2022/06/01 03:40:48;;;;;;;1.13;0.50;;;10.50;99.90;;;;;;5013533;28;20042;-81
2022/06/01 03:43:27;;;;;;;0.30;0.28;;;10.60;99.90;;;;;;5013840;28;20042;-80
2022/06/01 03:45:55;;;;;;;1.02;0.40;;;10.60;99.90;;;;;;4995014;28;20136;-80
2022/06/01 03:48:24;;;;;;;0.75;0.30;;;10.60;99.90;;;;;;4996332;28;20042;-80
2022/06/01 03:51:00;;;;;;;0.43;0.30;;;10.60;99.90;;;;;;4996071;28;20100;-80
2022/06/01 03:53:29;;;;;;;1.17;0.70;;;10.60;99.90;;;;;;5012767;28;20054;-81
2022/06/01 03:55:57;;;;;;;0.57;0.30;;;10.60;99.90;;;;;;4995543;28;20045;-80
2022/06/01 04:01:22;;;;;;;1.02;0.47;;;10.70;99.90;;;;;;5013841;28;20040;-80
2022/06/01 04:03:50;;;;;;;1.42;0.45;;;10.70;99.90;;;;;;5012407;28;20064;-80
2022/06/01 04:06:18;;;;;;;0.57;0.30;;;10.70;99.90;;;;;;5010725;28;20037;-80
2022/06/01 04:08:52;;;;;;;1.55;0.60;;;10.70;99.90;;;;;;5012677;28;20373;-80
2022/06/01 04:11:19;;;;;;;0.70;0.30;;;10.80;99.90;;;;;;5012075;28;20064;-80
2022/06/01 04:13:46;;;;;;;1.13;0.60;;;10.80;99.90;;;;;;5012135;28;20057;-80
2022/06/01 04:16:12;;;;;;;1.15;0.50;;;10.80;99.90;;;;;;5012988;28;20172;-80
2022/06/01 04:18:41;;;;;;;2.10;0.80;;;10.80;99.90;;;;;;5011898;28;20118;-81
2022/06/01 04:21:07;;;;;;;0.85;0.55;;;10.80;99.90;;;;;;5013085;28;20036;-81
2022/06/01 04:23:35;;;;;;;0.95;0.43;;;10.80;99.90;;;;;;4995790;28;20034;-81
2022/06/01 04:26:16;;;;;;;1.08;0.52;;;10.80;99.90;;;;;;4995669;28;20110;-80
2022/06/01 04:28:44;;;;;;;0.82;0.60;;;10.90;99.90;;;;;;5012038;28;20103;-80
2022/06/01 04:31:17;;;;;;;0.90;0.30;;;10.90;99.90;;;;;;4996452;28;20385;-80
2022/06/01 04:33:43;;;;;;;1.35;0.40;;;10.90;99.90;;;;;;5012683;28;20026;-80
2022/06/01 04:36:11;;;;;;;0.95;0.52;;;10.90;99.90;;;;;;5012485;28;20410;-81
2022/06/01 04:38:37;;;;;;;1.23;0.75;;;11.00;99.90;;;;;;4979199;28;20046;-81
2022/06/01 04:41:09;;;;;;;1.15;0.43;;;10.90;99.90;;;;;;5012578;28;20509;-80
2022/06/01 04:43:39;;;;;;;1.02;0.30;;;11.00;99.90;;;;;;5012740;28;20053;-81
2022/06/01 04:46:06;;;;;;;1.10;0.53;;;11.10;99.90;;;;;;5010834;28;20505;-81
2022/06/01 04:48:39;;;;;;;0.47;0.20;;;11.10;99.90;;;;;;4994980;28;20172;-81
2022/06/01 04:51:11;;;;;;;4.10;0.60;;;11.10;99.90;;;;;;5011219;28;20045;-80
2022/06/01 04:53:44;;;;;;;1.85;0.60;;;11.10;99.90;;;;;;5011283;28;20116;-81
2022/06/01 04:56:40;;;;;;;0.43;0.25;;;11.20;99.90;;;;;;5013202;28;20026;-81
2022/06/01 04:59:34;;;;;;;0.47;0.30;;;11.10;99.90;;;;;;5011796;28;20038;-81
2022/06/01 05:02:27;;;;;;;0.88;0.35;;;11.20;99.90;;;;;;5016774;28;20030;-81
2022/06/01 05:04:53;;;;;;;0.93;0.30;;;11.20;99.90;;;;;;5014994;28;20018;-81
2022/06/01 05:07:19;;;;;;;0.60;0.50;;;11.30;99.90;;;;;;4998986;28;20034;-82
2022/06/01 05:09:54;;;;;;;0.63;0.40;;;11.20;99.90;;;;;;5014909;28;20036;-81
2022/06/01 05:12:22;;;;;;;1.20;0.40;;;11.20;99.90;;;;;;5015943;28;20030;-81
2022/06/01 05:15:00;;;;;;;0.85;0.40;;;11.30;99.90;;;;;;5016012;28;20040;-82
2022/06/01 05:17:27;;;;;;;1.13;0.30;;;11.30;99.90;;;;;;5015694;28;20363;-82
2022/06/01 05:20:06;;;;;;;;;;;;;;;;;;;;;
2022/06/01 05:26:09;;;;;;;0.40;0.28;;;11.40;99.90;;;;;;4961621;28;20096;-82
2022/06/01 05:28:35;;;;;;;1.15;0.40;;;11.50;99.90;;;;;;4999161;28;20030;-80
2022/06/01 05:31:09;;;;;;;0.43;0.40;;;11.50;99.90;;;;;;4998801;28;20196;-81
2022/06/01 05:33:43;;;;;;;0.70;0.30;;;11.50;99.90;;;;;;5015384;28;20100;-81
2022/06/01 05:36:18;;;;;;;3.75;1.20;;;11.60;99.90;;;;;;5014638;28;20026;-81
2022/06/01 05:38:49;;;;;;;1.30;0.60;;;11.60;99.90;;;;;;5015933;28;20050;-81
2022/06/01 05:41:21;;;;;;;1.02;0.38;;;11.70;99.90;;;;;;5014852;28;20044;-82
2022/06/01 05:43:51;;;;;;;1.20;0.55;;;11.80;99.90;;;;;;5011506;28;20140;-82
2022/06/01 05:46:22;;;;;;;1.98;0.55;;;11.80;99.90;;;;;;5013994;28;20116;-82
2022/06/01 05:48:56;;;;;;;0.82;0.60;;;11.80;99.90;;;;;;5015544;28;20022;-81
2022/06/01 05:51:24;;;;;;;1.10;0.40;;;11.90;99.90;;;;;;4998806;28;20121;-81
2022/06/01 05:54:10;;;;;;;0.30;0.22;;;11.90;99.90;;;;;;5015428;28;20034;-81
2022/06/01 05:56:50;;;;;;;0.85;0.50;;;11.90;99.90;;;;;;5015029;28;20336;-82
2022/06/01 05:59:18;;;;;;;0.90;0.30;;;12.00;99.90;;;;;;5014644;28;20041;-82
2022/06/01 06:01:58;;;;;;;1.08;0.57;;;12.10;99.90;;;;;;5014238;28;20068;-82
2022/06/01 06:04:25;;;;;;;0.95;0.45;;;12.50;99.90;;;;;;5015942;28;20053;-82
2022/06/01 06:06:55;;;;;;;0.80;0.30;;;12.80;99.90;;;;;;5015319;28;20022;-83
2022/06/01 06:09:24;;;;;;;1.25;0.40;;;13.10;99.90;;;;;;4997498;28;20125;-82
2022/06/01 06:11:57;;;;;;;0.45;0.20;;;13.20;99.90;;;;;;4981029;28;20478;-83
2022/06/01 06:14:33;;;;;;;0.80;0.40;;;13.60;99.90;;;;;;5014930;28;20049;-82
2022/06/01 06:17:18;;;;;;;0.90;0.40;;;13.90;99.90;;;;;;4998850;28;20482;-83
2022/06/01 06:19:44;;;;;;;0.93;0.20;;;14.30;99.90;;;;;;5013894;28;20050;-82
2022/06/01 06:22:12;;;;;;;0.55;0.40;;;14.60;99.90;;;;;;5013314;28;20442;-82
2022/06/01 06:24:41;;;;;;;0.57;0.50;;;14.80;99.90;;;;;;5014877;28;20084;-82
2022/06/01 06:27:08;;;;;;;1.23;0.60;;;14.90;99.90;;;;;;5013500;28;20069;-82
2022/06/01 06:29:40;;;;;;;0.40;0.22;;;15.10;99.90;;;;;;4980783;28;20042;-82
2022/06/01 06:32:07;;;;;;;1.08;0.50;;;15.00;99.90;;;;;;5015111;28;20033;-82
2022/06/01 06:34:34;;;;;;;0.32;0.20;;;14.90;99.90;;;;;;5012841;28;20037;-82
2022/06/01 06:37:02;;;;;;;0.47;0.20;;;15.30;99.90;;;;;;4996926;28;20042;-82
2022/06/01 06:39:29;;;;;;;0.20;0.10;;;15.80;99.90;;;;;;5013316;28;20053;-82
2022/06/01 06:41:55;;;;;;;0.10;0.10;;;16.40;99.90;;;;;;5012879;28;20061;-82
2022/06/01 06:44:22;;;;;;;0.47;0.20;;;17.20;99.90;;;;;;4980877;28;20061;-83
2022/06/01 06:46:54;;;;;;;0.38;0.10;;;17.10;99.90;;;;;;4996499;28;20038;-82
2022/06/01 06:49:21;;;;;;;1.17;0.40;;;17.00;99.90;;;;;;5014051;28;20053;-82
2022/06/01 06:52:10;;;;;;;1.02;0.47;;;16.60;99.90;;;;;;4997025;28;20112;-81
2022/06/01 06:54:36;;;;;;;1.00;0.50;;;16.20;99.90;;;;;;5014896;28;20046;-82
2022/06/01 06:57:09;;;;;;;1.15;0.40;;;15.60;99.90;;;;;;5012906;28;20046;-81
2022/06/01 06:59:39;;;;;;;0.40;0.10;;;15.40;99.90;;;;;;5013553;28;20192;-82
2022/06/01 07:02:11;;;;;;;1.00;0.60;;;15.10;99.90;;;;;;5013169;28;20140;-81
2022/06/01 07:04:39;;;;;;;0.75;0.22;;;15.80;99.90;;;;;;5013511;28;20029;-81
2022/06/01 07:07:12;;;;;;;0.10;0.10;;;16.80;99.90;;;;;;4999289;28;20042;-81
2022/06/01 07:09:48;;;;;;;0.57;0.20;;;17.50;99.90;;;;;;5013756;28;20038;-82
2022/06/01 07:12:28;;;;;;;0.28;0.10;;;18.00;99.90;;;;;;4997266;28;20068;-81
2022/06/01 07:15:04;;;;;;;1.13;0.57;;;17.60;99.90;;;;;;4998520;28;20066;-81
2022/06/01 07:17:32;;;;;;;1.08;0.50;;;17.20;99.90;;;;;;5013668;28;20042;-81
2022/06/01 07:20:00;;;;;;;0.73;0.20;;;16.90;99.90;;;;;;5013589;28;20025;-81
2022/06/01 07:22:38;;;;;;;0.43;0.17;;;16.70;99.90;;;;;;5013720;28;20026;-81
2022/06/01 07:25:08;;;;;;;0.30;0.10;;;16.40;99.90;;;;;;5010643;28;20553;-81
2022/06/01 07:27:44;;;;;;;0.30;0.20;;;16.10;99.90;;;;;;5012250;28;20096;-81
2022/06/01 07:30:13;;;;;;;1.25;0.50;;;16.20;99.90;;;;;;4997121;28;20424;-81
2022/06/01 07:32:39;;;;;;;0.65;0.52;;;15.90;99.90;;;;;;5013620;28;20498;-82
2022/06/01 07:35:25;;;;;;;0.28;0.10;;;15.70;99.90;;;;;;5012423;28;20136;-82
2022/06/01 07:43:26;;;;;;;0.40;0.10;;;14.80;99.90;;;;;;5013143;28;20390;-82
2022/06/01 07:45:58;;;;;;;0.55;0.20;;;14.40;99.90;;;;;;4979812;28;20117;-80
2022/06/01 07:48:49;;;;;;;0.55;0.20;;;13.80;99.90;;;;;;5013647;28;20022;-80
2022/06/01 07:51:20;;;;;;;0.73;0.30;;;13.40;99.90;;;;;;5013914;28;20084;-80
2022/06/01 07:53:46;;;;;;;0.47;0.30;;;13.00;99.90;;;;;;4996962;28;20045;-81
2022/06/01 07:56:14;;;;;;;0.65;0.28;;;12.90;99.90;;;;;;5011930;28;20029;-80
2022/06/01 07:58:43;;;;;;;0.45;0.20;;;12.50;99.90;;;;;;5013942;28;20101;-81
2022/06/01 08:01:33;;;;;;;0.35;0.20;;;12.50;99.90;;;;;;5011451;28;20096;-81
2022/06/01 08:04:04;;;;;;;0.28;0.20;;;12.30;99.90;;;;;;5012396;28;20030;-80
2022/06/01 08:06:32;;;;;;;0.70;0.65;;;12.30;99.90;;;;;;5012044;28;20117;-81
2022/06/01 08:08:59;;;;;;;0.28;0.20;;;12.20;99.90;;;;;;5012820;28;20028;-81
2022/06/01 08:14:16;;;;;;;0.17;0.17;;;12.20;99.90;;;;;;5002828;28;20045;-81
2022/06/01 08:16:44;;;;;;;0.45;0.20;;;12.30;99.90;;;;;;5012414;28;20084;-81
2022/06/01 08:19:12;;;;;;;0.57;0.30;;;12.30;99.90;;;;;;5011866;28;20018;-80
2022/06/01 08:21:45;;;;;;;0.43;0.20;;;12.30;99.90;;;;;;5011300;28;20429;-81
2022/06/01 08:24:14;;;;;;;0.43;0.20;;;12.30;99.90;;;;;;5011729;28;20030;-81
2022/06/01 08:26:43;;;;;;;0.52;0.25;;;12.40;99.90;;;;;;4995526;28;20054;-81
2022/06/01 08:29:14;;;;;;;0.63;0.28;;;12.50;99.90;;;;;;4995731;28;20026;-82
2022/06/01 08:31:48;;;;;;;0.43;0.43;;;12.60;99.90;;;;;;4996267;28;20088;-81
2022/06/01 08:34:18;;;;;;;0.47;0.22;;;12.60;99.90;;;;;;5011068;28;20046;-81
2022/06/01 08:36:55;;;;;;;0.73;0.30;;;12.80;99.90;;;;;;5016406;28;20109;-81
2022/06/01 08:39:39;;;;;;;0.47;0.20;;;13.40;99.90;;;;;;5017185;28;20061;-82
2022/06/01 08:42:14;;;;;;;0.93;0.43;;;13.70;99.90;;;;;;5016095;28;20040;-81
2022/06/01 08:44:43;;;;;;;0.57;0.32;;;13.70;99.90;;;;;;5015570;28;20129;-81
2022/06/01 08:47:29;;;;;;;0.43;0.20;;;13.80;99.90;;;;;;5015764;28;20117;-81
2022/06/01 08:50:03;;;;;;;0.80;0.35;;;13.90;99.90;;;;;;5016809;28;20104;-82
2022/06/01 08:52:31;;;;;;;0.98;0.40;;;14.10;99.90;;;;;;4999149;28;20046;-81
2022/06/01 08:54:57;;;;;;;0.82;0.30;;;14.10;99.90;;;;;;4999860;28;20079;-81
2022/06/01 08:57:33;;;;;;;0.30;0.20;;;14.60;99.90;;;;;;5014677;28;20068;-81
2022/06/01 09:00:19;;;;;;;0.35;0.30;;;15.60;99.90;;;;;;5000061;28;20382;-82
2022/06/01 09:03:27;;;;;;;0.35;0.20;;;16.20;99.90;;;;;;5015579;28;20490;-81
2022/06/01 09:06:39;;;;;;;0.45;0.35;;;17.10;99.90;;;;;;5014443;28;20022;-81
2022/06/01 09:09:19;;;;;;;0.17;0.17;;;17.40;99.90;;;;;;5015950;28;20048;-81
2022/06/01 09:11:48;;;;;;;0.45;0.17;;;17.30;99.90;;;;;;5015802;28;20021;-82
2022/06/01 09:14:14;;;;;;;0.47;0.20;;;17.30;99.90;;;;;;5015017;28;20115;-81
2022/06/01 09:16:46;;;;;;;0.20;0.17;;;17.60;99.90;;;;;;5015635;28;20058;-82
2022/06/01 09:19:23;;;;;;;0.55;0.28;;;17.20;99.90;;;;;;5016330;28;20105;-81
2022/06/01 09:24:57;;;;;;;0.85;0.20;;;16.80;99.90;;;;;;5016356;28;20053;-82
2022/06/01 09:28:00;;;;;;;0.95;0.30;;;17.40;99.90;;;;;;5016374;28;20046;-81
2022/06/01 09:30:35;;;;;;;0.60;0.43;;;17.70;99.90;;;;;;5015201;28;20157;-81
2022/06/01 09:33:20;;;;;;;0.22;0.10;;;18.70;99.90;;;;;;5015262;28;20030;-82
2022/06/01 09:36:26;;;;;;;0.40;0.20;;;18.80;99.90;;;;;;5015045;28;20034;-81
2022/06/01 09:39:03;;;;;;;0.10;0.10;;;17.90;99.90;;;;;;5014267;28;20057;-81
2022/06/01 09:41:44;;;;;;;0.93;0.20;;;17.90;99.90;;;;;;5014920;28;20085;-80
2022/06/01 09:44:18;;;;;;;0.20;0.10;;;17.40;99.90;;;;;;5014438;28;20030;-81
2022/06/01 09:47:09;;;;;;;0.38;0.10;;;17.20;99.90;;;;;;5014159;28;20045;-81
2022/06/01 09:49:41;;;;;;;0.30;0.20;;;16.90;99.90;;;;;;5016073;28;20045;-81
2022/06/01 09:52:27;;;;;;;0.40;0.10;;;16.60;99.90;;;;;;5014821;28;20410;-81
2022/06/01 09:55:07;;;;;;;0.52;0.30;;;16.30;99.90;;;;;;5013956;28;20026;-81
2022/06/01 09:57:37;;;;;;;0.30;0.17;;;16.00;99.90;;;;;;5014200;28;20018;-81
2022/06/01 10:06:27;;;;;;;0.43;0.20;;;16.30;99.90;;;;;;5016067;28;20366;-80
2022/06/01 10:09:10;;;;;;;0.80;0.40;;;16.60;99.90;;;;;;5012470;28;20026;-82
2022/06/01 10:11:55;;;;;;;0.28;0.15;;;16.80;99.90;;;;;;5014292;28;20045;-81
2022/06/01 10:14:48;;;;;;;0.40;0.20;;;16.80;99.90;;;;;;5013261;28;20042;-80
2022/06/01 10:17:37;;;;;;;0.32;0.15;;;16.90;99.90;;;;;;5014139;28;20022;-81
2022/06/01 10:20:28;;;;;;;0.40;0.22;;;17.00;99.90;;;;;;5013965;28;20025;-81
2022/06/01 10:23:22;;;;;;;0.30;0.10;;;16.80;99.90;;;;;;5015503;28;20326;-81
2022/06/01 10:26:16;;;;;;;0.10;0.10;;;16.90;99.90;;;;;;5014924;28;20034;-82
2022/06/01 10:28:51;;;;;;;;;;;18.20;99.90;;;;;;5015625;28;20072;-82
2022/06/01 10:31:26;;;;;;;0.17;0.10;;;19.30;99.90;;;;;;5013633;28;19906;-82
2022/06/01 10:34:41;;;;;;;0.30;0.10;;;20.50;99.90;;;;;;5015212;28;20121;-83
2022/06/01 10:37:34;;;;;;;0.17;0.10;;;20.70;99.90;;;;;;5015628;28;20033;-82
2022/06/01 10:40:08;;;;;;;0.10;0.10;;;20.40;99.90;;;;;;5013673;28;20088;-83
2022/06/01 10:45:33;;;;;;;0.00;0.00;;;19.20;99.90;;;;;;5014783;28;20563;-81
2022/06/01 10:48:11;;;;;;;0.10;0.10;;;18.00;99.90;;;;;;5014694;28;20026;-81
2022/06/01 10:50:53;;;;;;;0.10;0.10;;;17.60;99.90;;;;;;5013554;28;20160;-81
2022/06/01 10:53:37;;;;;;;0.20;0.20;;;17.60;99.90;;;;;;5014098;28;20038;-81
2022/06/01 10:56:05;;;;;;;0.10;0.10;;;18.00;99.90;;;;;;5013634;28;20041;-80
2022/06/01 10:58:38;;;;;;;0.10;0.10;;;18.50;99.90;;;;;;4997524;28;20049;-81
2022/06/01 11:01:31;;;;;;;0.10;0.10;;;19.20;99.90;;;;;;4997819;28;20026;-81
2022/06/01 11:04:28;;;;;;;0.10;0.10;;;19.80;99.90;;;;;;5013289;28;20120;-82
2022/06/01 11:07:09;;;;;;;0.10;0.10;;;19.50;99.90;;;;;;5014681;28;20014;-82
2022/06/01 11:10:16;;;;;;;0.30;0.10;;;19.50;99.90;;;;;;5013130;28;20082;-82
2022/06/01 11:12:45;;;;;;;0.17;0.10;;;19.50;99.90;;;;;;5017492;28;20042;-82
2022/06/01 11:15:44;;;;;;;0.10;0.10;;;19.00;99.90;;;;;;5013834;28;20117;-82
2022/06/01 11:18:37;;;;;;;0.15;0.10;;;18.00;99.90;;;;;;5013064;28;20124;-82
2022/06/01 11:21:08;;;;;;;0.10;0.10;;;18.10;99.90;;;;;;5013049;28;20030;-81
2022/06/01 11:23:55;;;;;;;0.10;0.10;;;18.00;99.90;;;;;;5012790;28;20024;-81
2022/06/01 11:26:53;;;;;;;0.63;0.28;;;17.20;99.90;;;;;;5013236;28;20029;-81
2022/06/01 11:29:43;;;;;;;0.28;0.10;;;16.60;99.90;;;;;;5012906;28;20018;-81
2022/06/01 11:32:24;;;;;;;0.47;0.20;;;15.90;99.90;;;;;;5012678;28;20079;-83
2022/06/01 11:35:09;;;;;;;0.60;0.20;;;15.20;99.90;;;;;;5014010;28;20026;-81
2022/06/01 11:37:57;;;;;;;0.28;0.10;;;14.70;99.90;;;;;;5013000;28;20048;-81
2022/06/01 11:40:52;;;;;;;0.25;0.10;;;14.00;99.90;;;;;;4996446;28;20081;-81
2022/06/01 11:43:48;;;;;;;0.10;0.10;;;13.70;99.90;;;;;;5012271;28;20038;-81
2022/06/01 11:46:33;;;;;;;0.28;0.10;;;13.60;99.90;;;;;;5010461;28;20136;-81
2022/06/01 11:49:03;;;;;;;0.17;0.10;;;13.30;99.90;;;;;;5012641;28;20098;-81
2022/06/01 11:51:38;;;;;;;0.25;0.10;;;13.50;99.90;;;;;;5013547;28;20022;-81
2022/06/01 11:54:14;;;;;;;0.50;0.20;;;13.20;99.90;;;;;;5013524;28;20077;-80
2022/06/01 11:56:51;;;;;;;0.45;0.30;;;13.40;99.90;;;;;;5012187;28;20034;-81
2022/06/01 11:59:45;;;;;;;0.52;0.20;;;13.50;99.90;;;;;;5011777;28;20109;-81
2022/06/01 12:02:40;;;;;;;0.30;0.10;;;13.40;99.90;;;;;;5012040;28;20057;-81
2022/06/01 12:05:30;;;;;;;0.40;0.17;;;13.40;99.90;;;;;;5013599;28;20045;-82
2022/06/01 12:08:16;;;;;;;0.40;0.20;;;13.90;99.90;;;;;;5012848;28;20247;-81
2022/06/01 12:10:58;;;;;;;0.40;0.17;;;14.10;99.90;;;;;;5011547;28;20191;-81
2022/06/01 12:13:30;;;;;;;0.38;0.15;;;14.70;99.90;;;;;;5012617;28;20446;-81
2022/06/01 12:16:04;;;;;;;;;;;15.30;99.90;;;;;;5012043;28;20034;-82
2022/06/01 12:18:35;;;;;;;0.28;0.10;;;15.60;99.90;;;;;;5011687;28;19998;-81
2022/06/01 12:21:38;;;;;;;0.30;0.20;;;16.20;99.90;;;;;;5011722;28;20026;-81
2022/06/01 12:30:25;;;;;;;0.17;0.10;;;17.00;99.90;;;;;;5030553;28;20025;-81
2022/06/01 12:33:00;;;;;;;0.17;0.10;;;17.90;99.90;;;;;;5030277;28;20045;-81
2022/06/01 12:35:31;;;;;;;0.55;0.47;;;18.50;99.90;;;;;;5030190;28;20045;-82
2022/06/01 12:38:06;;;;;;;0.17;0.10;;;18.90;99.90;;;;;;5029931;28;20088;-82
2022/06/01 12:40:32;;;;;;;0.10;0.10;;;18.90;99.90;;;;;;5030293;28;20041;-82
2022/06/01 12:43:02;;;;;;;0.38;0.17;;;18.30;99.90;;;;;;4978853;28;20032;-81
2022/06/01 12:45:37;;;;;;;0.10;0.10;;;18.60;99.90;;;;;;4980687;28;20033;-81
2022/06/01 12:48:14;;;;;;;0.10;0.10;;;18.90;99.90;;;;;;5011925;28;20042;-82
2022/06/01 12:51:01;;;;;;;0.28;0.10;;;19.00;99.90;;;;;;5012409;28;20493;-81
2022/06/01 12:53:42;;;;;;;0.10;0.10;;;18.90;99.90;;;;;;5012781;28;20040;-83
2022/06/01 12:56:27;;;;;;;0.38;0.20;;;17.30;99.90;;;;;;5011773;28;20022;-81
2022/06/01 12:58:55;;;;;;;0.47;0.20;;;17.00;99.90;;;;;;5012972;28;20054;-81
2022/06/01 13:01:29;;;;;;;0.40;0.20;;;16.70;99.90;;;;;;5012019;28;20084;-81
2022/06/01 13:03:59;;;;;;;0.10;0.10;;;16.40;99.90;;;;;;4996570;28;20034;-82
2022/06/01 13:06:28;;;;;;;0.22;0.10;;;16.40;99.90;;;;;;5011481;28;20112;-82
2022/06/01 13:09:09;;;;;;;0.15;0.10;;;16.40;99.90;;;;;;5011921;28;20026;-81
2022/06/01 13:11:37;;;;;;;0.32;0.10;;;16.50;99.90;;;;;;5011713;28;20448;-81
2022/06/01 13:14:09;;;;;;;0.40;0.15;;;16.70;99.90;;;;;;4996822;28;20054;-81
2022/06/01 13:16:47;;;;;;;0.17;0.10;;;16.80;99.90;;;;;;4995859;28;20065;-82
2022/06/01 13:19:24;;;;;;;0.35;0.10;;;17.10;99.90;;;;;;5011717;28;20026;-81
2022/06/01 13:22:05;;;;;;;0.13;0.10;;;17.60;99.90;;;;;;5013371;28;20030;-82
2022/06/01 13:24:42;;;;;;;0.10;0.10;;;17.10;99.90;;;;;;5015434;28;20034;-82
2022/06/01 13:27:11;;;;;;;0.10;0.10;;;17.60;99.90;;;;;;5015422;28;20048;-82
2022/06/01 13:29:44;;;;;;;0.10;0.10;;;18.10;99.90;;;;;;4998810;28;20128;-82
2022/06/01 13:32:14;;;;;;;0.17;0.10;;;18.40;99.90;;;;;;4999991;28;20038;-82
2022/06/01 13:34:51;;;;;;;0.28;0.10;;;18.70;99.90;;;;;;5015930;28;20494;-82
2022/06/01 13:37:19;;;;;;;0.15;0.10;;;18.30;99.90;;;;;;5012449;28;20414;-83
2022/06/01 13:39:54;;;;;;;0.10;0.10;;;18.60;99.90;;;;;;5014624;28;20062;-82
2022/06/01 13:42:47;;;;;;;0.30;0.20;;;18.70;99.90;;;;;;5016339;28;20022;-81
2022/06/01 13:45:40;;;;;;;0.10;0.10;;;18.30;99.90;;;;;;5014484;28;20393;-82
2022/06/01 13:48:47;;;;;;;0.17;0.10;;;18.80;99.90;;;;;;5015045;28;20438;-82
2022/06/01 13:51:26;;;;;;;0.10;0.10;;;19.30;99.90;;;;;;5016198;28;20467;-82
2022/06/01 13:53:59;;;;;;;0.10;0.10;;;18.30;99.90;;;;;;5016350;28;20417;-82
2022/06/01 13:56:42;;;;;;;0.57;0.38;;;18.00;99.90;;;;;;4984430;28;20026;-82
2022/06/01 13:59:28;;;;;;;0.28;0.10;;;17.60;99.90;;;;;;5015084;28;20037;-81
2022/06/01 14:02:05;;;;;;;0.10;0.10;;;17.60;99.90;;;;;;4998980;28;20308;-82
2022/06/01 14:04:59;;;;;;;0.10;0.10;;;17.60;99.90;;;;;;4998987;28;20034;-82
2022/06/01 14:07:43;;;;;;;0.40;0.10;;;16.80;99.90;;;;;;5014462;28;20030;-82
2022/06/01 14:10:13;;;;;;;0.68;0.20;;;17.20;99.90;;;;;;5015500;28;20075;-82
2022/06/01 14:12:43;;;;;;;0.10;0.10;;;17.40;99.90;;;;;;4998907;28;20037;-82
2022/06/01 14:15:12;;;;;;;0.57;0.20;;;17.20;99.90;;;;;;5014213;28;20026;-82
2022/06/01 14:17:44;;;;;;;0.10;0.10;;;17.10;99.90;;;;;;4998283;28;20026;-82
2022/06/01 14:20:12;;;;;;;0.30;0.10;;;17.50;99.90;;;;;;4998217;28;20140;-82